Wilton, Iowa
Current Conditions -  °F | °C
As of 7:35 PM on Monday 24 Nov 2014 (Local Time) from KMUT Reporting Station
Overcast Overcast  
Wind Chill: 16°   Ceiling: 2600
Heat Index: 28°   Visibility: 10mi
Dew Point: 21°   Wind: 17mph
Humidity: 74%   Direction: 270°W
Pressure: 29.84"   Gusts: 24mph
Location:  41.59°N, 91.02°W
Report Text: KMUT 250135Z AUTO 27015G21KT 10SM OVC026 M02/M06 A2984 RMK AO2
Loading
Personal Weather Stations






























Interactive Weather Map New forecast layout! Learn more

10-Day Weather Forecast

Advertisements
Track Severe Weather on mobile